sensor_id;sensor_type;location;lat;lon;timestamp;P1;durP1;ratioP1;P2;durP2;ratioP2
12145;SDS011;6136;47.032;15.398;2024-02-14T00:01:02;5.80;;;3.50;;
12145;SDS011;6136;47.032;15.398;2024-02-14T00:03:30;5.40;;;3.57;;
12145;SDS011;6136;47.032;15.398;2024-02-14T00:05:58;4.87;;;3.50;;
12145;SDS011;6136;47.032;15.398;2024-02-14T00:08:26;5.97;;;3.50;;
12145;SDS011;6136;47.032;15.398;2024-02-14T00:10:56;7.70;;;4.47;;
12145;SDS011;6136;47.032;15.398;2024-02-14T00:13:24;4.53;;;3.87;;
12145;SDS011;6136;47.032;15.398;2024-02-14T00:15:52;7.73;;;3.97;;
12145;SDS011;6136;47.032;15.398;2024-02-14T00:18:20;4.40;;;3.30;;
12145;SDS011;6136;47.032;15.398;2024-02-14T00:20:49;5.70;;;3.23;;
12145;SDS011;6136;47.032;15.398;2024-02-14T00:23:17;5.27;;;3.70;;
12145;SDS011;6136;47.032;15.398;2024-02-14T00:25:45;4.50;;;3.77;;
12145;SDS011;6136;47.032;15.398;2024-02-14T00:28:15;5.60;;;3.70;;
12145;SDS011;6136;47.032;15.398;2024-02-14T00:30:43;3.80;;;3.40;;
12145;SDS011;6136;47.032;15.398;2024-02-14T00:33:11;4.23;;;3.43;;
12145;SDS011;6136;47.032;15.398;2024-02-14T00:35:39;6.87;;;3.57;;
12145;SDS011;6136;47.032;15.398;2024-02-14T00:38:07;3.90;;;3.47;;
12145;SDS011;6136;47.032;15.398;2024-02-14T00:40:36;5.43;;;3.43;;
12145;SDS011;6136;47.032;15.398;2024-02-14T00:43:04;4.10;;;3.23;;
12145;SDS011;6136;47.032;15.398;2024-02-14T00:45:33;4.93;;;3.57;;
12145;SDS011;6136;47.032;15.398;2024-02-14T00:48:01;5.37;;;3.40;;
12145;SDS011;6136;47.032;15.398;2024-02-14T00:50:30;5.70;;;3.50;;
12145;SDS011;6136;47.032;15.398;2024-02-14T00:53:00;4.53;;;3.27;;
12145;SDS011;6136;47.032;15.398;2024-02-14T00:55:28;4.53;;;3.40;;
12145;SDS011;6136;47.032;15.398;2024-02-14T00:57:56;5.57;;;3.90;;
12145;SDS011;6136;47.032;15.398;2024-02-14T01:00:24;5.10;;;3.60;;
12145;SDS011;6136;47.032;15.398;2024-02-14T01:02:53;4.23;;;3.37;;
12145;SDS011;6136;47.032;15.398;2024-02-14T01:05:22;5.13;;;3.60;;
12145;SDS011;6136;47.032;15.398;2024-02-14T01:07:51;3.43;;;3.10;;
12145;SDS011;6136;47.032;15.398;2024-02-14T01:10:20;4.00;;;3.13;;
12145;SDS011;6136;47.032;15.398;2024-02-14T01:12:48;4.57;;;3.63;;
12145;SDS011;6136;47.032;15.398;2024-02-14T01:15:16;4.83;;;3.03;;
12145;SDS011;6136;47.032;15.398;2024-02-14T01:17:44;4.73;;;3.20;;
12145;SDS011;6136;47.032;15.398;2024-02-14T01:20:15;4.90;;;3.03;;
12145;SDS011;6136;47.032;15.398;2024-02-14T01:22:43;4.37;;;3.40;;
12145;SDS011;6136;47.032;15.398;2024-02-14T01:25:12;5.83;;;3.90;;
12145;SDS011;6136;47.032;15.398;2024-02-14T01:27:40;3.47;;;3.13;;
12145;SDS011;6136;47.032;15.398;2024-02-14T01:30:09;6.33;;;3.57;;
12145;SDS011;6136;47.032;15.398;2024-02-14T01:32:38;4.47;;;3.40;;
12145;SDS011;6136;47.032;15.398;2024-02-14T01:35:07;3.83;;;3.17;;
12145;SDS011;6136;47.032;15.398;2024-02-14T01:37:37;5.10;;;3.00;;
12145;SDS011;6136;47.032;15.398;2024-02-14T01:40:06;3.80;;;3.40;;
12145;SDS011;6136;47.032;15.398;2024-02-14T01:42:34;4.23;;;3.20;;
12145;SDS011;6136;47.032;15.398;2024-02-14T01:45:03;3.93;;;3.23;;
12145;SDS011;6136;47.032;15.398;2024-02-14T01:47:31;7.03;;;3.23;;
12145;SDS011;6136;47.032;15.398;2024-02-14T01:49:59;4.33;;;3.40;;
12145;SDS011;6136;47.032;15.398;2024-02-14T01:52:27;7.13;;;3.33;;
12145;SDS011;6136;47.032;15.398;2024-02-14T01:54:57;5.83;;;3.33;;
12145;SDS011;6136;47.032;15.398;2024-02-14T01:57:25;4.03;;;3.37;;
12145;SDS011;6136;47.032;15.398;2024-02-14T01:59:52;4.07;;;3.13;;
12145;SDS011;6136;47.032;15.398;2024-02-14T02:02:22;4.43;;;3.13;;
12145;SDS011;6136;47.032;15.398;2024-02-14T02:04:50;4.70;;;3.07;;
12145;SDS011;6136;47.032;15.398;2024-02-14T02:07:18;3.50;;;3.07;;
12145;SDS011;6136;47.032;15.398;2024-02-14T02:09:46;4.23;;;3.00;;
12145;SDS011;6136;47.032;15.398;2024-02-14T02:12:16;7.67;;;3.47;;
12145;SDS011;6136;47.032;15.398;2024-02-14T02:14:44;4.73;;;3.03;;
12145;SDS011;6136;47.032;15.398;2024-02-14T02:17:12;3.40;;;3.10;;
12145;SDS011;6136;47.032;15.398;2024-02-14T02:19:40;3.83;;;3.07;;
12145;SDS011;6136;47.032;15.398;2024-02-14T02:22:08;5.20;;;3.20;;
12145;SDS011;6136;47.032;15.398;2024-02-14T02:24:38;4.23;;;3.17;;
12145;SDS011;6136;47.032;15.398;2024-02-14T02:27:06;5.23;;;2.93;;
12145;SDS011;6136;47.032;15.398;2024-02-14T02:29:34;3.67;;;3.30;;
12145;SDS011;6136;47.032;15.398;2024-02-14T02:32:05;3.00;;;2.77;;
12145;SDS011;6136;47.032;15.398;2024-02-14T02:34:33;4.57;;;3.23;;
12145;SDS011;6136;47.032;15.398;2024-02-14T02:37:01;3.37;;;2.90;;
12145;SDS011;6136;47.032;15.398;2024-02-14T02:39:34;4.00;;;3.30;;
12145;SDS011;6136;47.032;15.398;2024-02-14T02:42:04;6.83;;;3.50;;
12145;SDS011;6136;47.032;15.398;2024-02-14T02:44:32;5.43;;;3.13;;
12145;SDS011;6136;47.032;15.398;2024-02-14T02:47:00;4.33;;;3.13;;
12145;SDS011;6136;47.032;15.398;2024-02-14T02:49:28;3.67;;;3.30;;
12145;SDS011;6136;47.032;15.398;2024-02-14T02:51:56;3.50;;;3.17;;
12145;SDS011;6136;47.032;15.398;2024-02-14T02:54:24;4.10;;;3.67;;
12145;SDS011;6136;47.032;15.398;2024-02-14T02:56:52;4.77;;;3.10;;
12145;SDS011;6136;47.032;15.398;2024-02-14T02:59:21;5.47;;;3.33;;
12145;SDS011;6136;47.032;15.398;2024-02-14T03:01:50;3.30;;;3.00;;
12145;SDS011;6136;47.032;15.398;2024-02-14T03:04:18;6.20;;;3.40;;
12145;SDS011;6136;47.032;15.398;2024-02-14T03:06:46;4.27;;;3.20;;
12145;SDS011;6136;47.032;15.398;2024-02-14T03:09:14;4.90;;;3.20;;
12145;SDS011;6136;47.032;15.398;2024-02-14T03:11:45;6.20;;;3.40;;
12145;SDS011;6136;47.032;15.398;2024-02-14T03:14:13;3.50;;;3.20;;
12145;SDS011;6136;47.032;15.398;2024-02-14T03:16:43;6.43;;;4.43;;
12145;SDS011;6136;47.032;15.398;2024-02-14T03:19:11;3.50;;;3.20;;
12145;SDS011;6136;47.032;15.398;2024-02-14T03:21:39;7.03;;;3.77;;
12145;SDS011;6136;47.032;15.398;2024-02-14T03:24:07;5.03;;;3.47;;
12145;SDS011;6136;47.032;15.398;2024-02-14T03:26:37;5.27;;;3.30;;
12145;SDS011;6136;47.032;15.398;2024-02-14T03:29:05;4.37;;;3.40;;
12145;SDS011;6136;47.032;15.398;2024-02-14T03:31:34;4.27;;;3.27;;
12145;SDS011;6136;47.032;15.398;2024-02-14T03:34:04;6.07;;;3.30;;
12145;SDS011;6136;47.032;15.398;2024-02-14T03:36:32;5.10;;;3.40;;
12145;SDS011;6136;47.032;15.398;2024-02-14T03:39:00;4.50;;;3.60;;
12145;SDS011;6136;47.032;15.398;2024-02-14T03:41:30;4.53;;;3.00;;
12145;SDS011;6136;47.032;15.398;2024-02-14T03:43:58;5.90;;;3.30;;
12145;SDS011;6136;47.032;15.398;2024-02-14T03:46:28;5.97;;;3.73;;
12145;SDS011;6136;47.032;15.398;2024-02-14T03:48:56;3.40;;;3.10;;
12145;SDS011;6136;47.032;15.398;2024-02-14T03:51:26;5.50;;;3.50;;
12145;SDS011;6136;47.032;15.398;2024-02-14T03:53:54;5.90;;;3.50;;
12145;SDS011;6136;47.032;15.398;2024-02-14T03:56:22;4.37;;;3.30;;
12145;SDS011;6136;47.032;15.398;2024-02-14T03:58:50;4.63;;;3.40;;
12145;SDS011;6136;47.032;15.398;2024-02-14T04:01:18;6.40;;;3.07;;
12145;SDS011;6136;47.032;15.398;2024-02-14T04:03:46;5.73;;;3.90;;
12145;SDS011;6136;47.032;15.398;2024-02-14T04:06:16;5.83;;;3.73;;
12145;SDS011;6136;47.032;15.398;2024-02-14T04:08:46;6.30;;;3.53;;
12145;SDS011;6136;47.032;15.398;2024-02-14T04:11:14;4.97;;;3.77;;
12145;SDS011;6136;47.032;15.398;2024-02-14T04:13:42;3.87;;;3.30;;
12145;SDS011;6136;47.032;15.398;2024-02-14T04:16:10;5.17;;;3.30;;
12145;SDS011;6136;47.032;15.398;2024-02-14T04:18:38;5.43;;;3.23;;
12145;SDS011;6136;47.032;15.398;2024-02-14T04:21:07;5.77;;;3.60;;
12145;SDS011;6136;47.032;15.398;2024-02-14T04:23:35;4.77;;;3.10;;
12145;SDS011;6136;47.032;15.398;2024-02-14T04:26:05;7.27;;;3.63;;
12145;SDS011;6136;47.032;15.398;2024-02-14T04:28:33;4.50;;;3.60;;
12145;SDS011;6136;47.032;15.398;2024-02-14T04:31:01;4.73;;;3.60;;
12145;SDS011;6136;47.032;15.398;2024-02-14T04:33:29;4.60;;;3.37;;
12145;SDS011;6136;47.032;15.398;2024-02-14T04:35:57;6.20;;;4.40;;
12145;SDS011;6136;47.032;15.398;2024-02-14T04:38:25;6.87;;;4.13;;
12145;SDS011;6136;47.032;15.398;2024-02-14T04:40:55;4.23;;;3.83;;
12145;SDS011;6136;47.032;15.398;2024-02-14T04:43:25;5.20;;;3.93;;
12145;SDS011;6136;47.032;15.398;2024-02-14T04:45:53;6.03;;;4.47;;
12145;SDS011;6136;47.032;15.398;2024-02-14T04:48:21;6.37;;;4.00;;
12145;SDS011;6136;47.032;15.398;2024-02-14T04:50:49;5.00;;;3.83;;
12145;SDS011;6136;47.032;15.398;2024-02-14T04:53:17;6.77;;;3.80;;
12145;SDS011;6136;47.032;15.398;2024-02-14T04:55:46;4.67;;;3.67;;
12145;SDS011;6136;47.032;15.398;2024-02-14T04:58:14;4.07;;;3.43;;
12145;SDS011;6136;47.032;15.398;2024-02-14T05:00:43;6.70;;;4.00;;
12145;SDS011;6136;47.032;15.398;2024-02-14T05:03:12;10.70;;;6.40;;
12145;SDS011;6136;47.032;15.398;2024-02-14T05:05:40;12.93;;;5.87;;
12145;SDS011;6136;47.032;15.398;2024-02-14T05:08:08;9.57;;;4.37;;
12145;SDS011;6136;47.032;15.398;2024-02-14T05:10:36;5.47;;;3.90;;
12145;SDS011;6136;47.032;15.398;2024-02-14T05:13:04;8.53;;;4.53;;
12145;SDS011;6136;47.032;15.398;2024-02-14T05:15:32;5.83;;;3.87;;
12145;SDS011;6136;47.032;15.398;2024-02-14T05:18:03;8.07;;;4.10;;
12145;SDS011;6136;47.032;15.398;2024-02-14T05:20:32;5.20;;;3.83;;
12145;SDS011;6136;47.032;15.398;2024-02-14T05:23:00;6.10;;;4.10;;
12145;SDS011;6136;47.032;15.398;2024-02-14T05:25:29;7.27;;;4.80;;
12145;SDS011;6136;47.032;15.398;2024-02-14T05:27:59;6.47;;;4.47;;
12145;SDS011;6136;47.032;15.398;2024-02-14T05:30:28;4.47;;;4.00;;
12145;SDS011;6136;47.032;15.398;2024-02-14T05:32:56;8.60;;;4.13;;
12145;SDS011;6136;47.032;15.398;2024-02-14T05:35:25;5.70;;;4.57;;
12145;SDS011;6136;47.032;15.398;2024-02-14T05:37:53;4.57;;;4.13;;
12145;SDS011;6136;47.032;15.398;2024-02-14T05:40:22;6.23;;;4.47;;
12145;SDS011;6136;47.032;15.398;2024-02-14T05:42:51;6.00;;;3.70;;
12145;SDS011;6136;47.032;15.398;2024-02-14T05:45:19;6.57;;;3.87;;
12145;SDS011;6136;47.032;15.398;2024-02-14T05:47:47;6.03;;;3.93;;
12145;SDS011;6136;47.032;15.398;2024-02-14T05:50:15;7.70;;;4.70;;
12145;SDS011;6136;47.032;15.398;2024-02-14T05:52:44;10.17;;;4.33;;
12145;SDS011;6136;47.032;15.398;2024-02-14T05:55:12;7.83;;;5.27;;
12145;SDS011;6136;47.032;15.398;2024-02-14T05:57:41;9.83;;;5.27;;
12145;SDS011;6136;47.032;15.398;2024-02-14T06:00:10;10.93;;;6.30;;
12145;SDS011;6136;47.032;15.398;2024-02-14T06:02:39;15.43;;;6.57;;
12145;SDS011;6136;47.032;15.398;2024-02-14T06:05:07;7.97;;;4.77;;
12145;SDS011;6136;47.032;15.398;2024-02-14T06:07:36;7.23;;;4.47;;
12145;SDS011;6136;47.032;15.398;2024-02-14T06:10:06;7.23;;;4.90;;
12145;SDS011;6136;47.032;15.398;2024-02-14T06:12:34;6.23;;;4.60;;
12145;SDS011;6136;47.032;15.398;2024-02-14T06:15:02;7.73;;;4.17;;
12145;SDS011;6136;47.032;15.398;2024-02-14T06:17:31;6.33;;;4.50;;
12145;SDS011;6136;47.032;15.398;2024-02-14T06:19:59;11.43;;;5.03;;
12145;SDS011;6136;47.032;15.398;2024-02-14T06:22:32;8.47;;;4.73;;
12145;SDS011;6136;47.032;15.398;2024-02-14T06:25:09;8.93;;;3.93;;
12145;SDS011;6136;47.032;15.398;2024-02-14T06:27:37;7.90;;;5.07;;
12145;SDS011;6136;47.032;15.398;2024-02-14T06:30:05;6.10;;;4.20;;
12145;SDS011;6136;47.032;15.398;2024-02-14T06:32:34;5.17;;;4.17;;
12145;SDS011;6136;47.032;15.398;2024-02-14T06:35:03;5.37;;;4.33;;
12145;SDS011;6136;47.032;15.398;2024-02-14T06:37:32;9.33;;;4.77;;
12145;SDS011;6136;47.032;15.398;2024-02-14T06:40:15;5.97;;;4.17;;
12145;SDS011;6136;47.032;15.398;2024-02-14T06:42:44;6.43;;;3.50;;
12145;SDS011;6136;47.032;15.398;2024-02-14T06:45:12;7.13;;;4.33;;
12145;SDS011;6136;47.032;15.398;2024-02-14T06:47:40;7.00;;;4.27;;
12145;SDS011;6136;47.032;15.398;2024-02-14T06:50:08;9.27;;;4.70;;
12145;SDS011;6136;47.032;15.398;2024-02-14T06:52:37;7.67;;;4.13;;
12145;SDS011;6136;47.032;15.398;2024-02-14T06:55:05;5.30;;;3.97;;
12145;SDS011;6136;47.032;15.398;2024-02-14T06:57:35;8.73;;;4.33;;
12145;SDS011;6136;47.032;15.398;2024-02-14T07:00:03;8.13;;;3.60;;
12145;SDS011;6136;47.032;15.398;2024-02-14T07:02:33;6.73;;;4.47;;
12145;SDS011;6136;47.032;15.398;2024-02-14T07:05:02;7.07;;;4.33;;
12145;SDS011;6136;47.032;15.398;2024-02-14T07:07:30;8.27;;;4.27;;
12145;SDS011;6136;47.032;15.398;2024-02-14T07:09:58;7.63;;;4.90;;
12145;SDS011;6136;47.032;15.398;2024-02-14T07:12:26;15.43;;;5.33;;
12145;SDS011;6136;47.032;15.398;2024-02-14T07:14:58;15.07;;;4.90;;
12145;SDS011;6136;47.032;15.398;2024-02-14T07:17:26;11.77;;;5.23;;
12145;SDS011;6136;47.032;15.398;2024-02-14T07:19:54;11.20;;;5.20;;
12145;SDS011;6136;47.032;15.398;2024-02-14T07:22:22;10.23;;;5.70;;
12145;SDS011;6136;47.032;15.398;2024-02-14T07:24:50;8.57;;;5.90;;
12145;SDS011;6136;47.032;15.398;2024-02-14T07:27:20;10.77;;;4.90;;
12145;SDS011;6136;47.032;15.398;2024-02-14T07:29:48;16.17;;;5.20;;
12145;SDS011;6136;47.032;15.398;2024-02-14T07:32:18;12.70;;;6.20;;
12145;SDS011;6136;47.032;15.398;2024-02-14T07:34:46;6.73;;;4.03;;
12145;SDS011;6136;47.032;15.398;2024-02-14T07:37:14;13.63;;;4.90;;
12145;SDS011;6136;47.032;15.398;2024-02-14T07:39:45;6.07;;;4.40;;
12145;SDS011;6136;47.032;15.398;2024-02-14T07:42:13;6.47;;;4.17;;
12145;SDS011;6136;47.032;15.398;2024-02-14T07:44:41;8.67;;;4.40;;
12145;SDS011;6136;47.032;15.398;2024-02-14T07:47:09;6.73;;;3.77;;
12145;SDS011;6136;47.032;15.398;2024-02-14T07:49:39;10.63;;;3.93;;
12145;SDS011;6136;47.032;15.398;2024-02-14T07:52:07;11.10;;;4.63;;
12145;SDS011;6136;47.032;15.398;2024-02-14T07:54:35;10.40;;;4.80;;
12145;SDS011;6136;47.032;15.398;2024-02-14T07:57:04;7.20;;;4.23;;
12145;SDS011;6136;47.032;15.398;2024-02-14T07:59:32;14.27;;;4.70;;
12145;SDS011;6136;47.032;15.398;2024-02-14T08:02:00;12.27;;;3.90;;
12145;SDS011;6136;47.032;15.398;2024-02-14T08:04:29;9.23;;;4.10;;
12145;SDS011;6136;47.032;15.398;2024-02-14T08:06:58;11.20;;;4.80;;
12145;SDS011;6136;47.032;15.398;2024-02-14T08:09:26;7.30;;;4.13;;
12145;SDS011;6136;47.032;15.398;2024-02-14T08:11:54;17.67;;;4.33;;
12145;SDS011;6136;47.032;15.398;2024-02-14T08:14:22;10.73;;;4.70;;
12145;SDS011;6136;47.032;15.398;2024-02-14T08:16:50;16.07;;;4.73;;
12145;SDS011;6136;47.032;15.398;2024-02-14T08:19:18;10.33;;;4.67;;
12145;SDS011;6136;47.032;15.398;2024-02-14T08:21:46;11.57;;;4.23;;
12145;SDS011;6136;47.032;15.398;2024-02-14T08:24:16;7.27;;;4.03;;
12145;SDS011;6136;47.032;15.398;2024-02-14T08:26:44;9.07;;;4.30;;
12145;SDS011;6136;47.032;15.398;2024-02-14T08:29:12;13.77;;;4.50;;
12145;SDS011;6136;47.032;15.398;2024-02-14T08:31:41;8.97;;;4.40;;
12145;SDS011;6136;47.032;15.398;2024-02-14T08:34:08;9.10;;;4.10;;
12145;SDS011;6136;47.032;15.398;2024-02-14T08:36:37;8.47;;;4.53;;
12145;SDS011;6136;47.032;15.398;2024-02-14T08:39:07;9.80;;;4.40;;
12145;SDS011;6136;47.032;15.398;2024-02-14T08:41:38;6.73;;;4.43;;
12145;SDS011;6136;47.032;15.398;2024-02-14T08:44:10;9.20;;;4.50;;
12145;SDS011;6136;47.032;15.398;2024-02-14T08:46:38;8.17;;;4.60;;
12145;SDS011;6136;47.032;15.398;2024-02-14T08:49:08;5.57;;;3.83;;
12145;SDS011;6136;47.032;15.398;2024-02-14T08:51:38;12.47;;;4.37;;
12145;SDS011;6136;47.032;15.398;2024-02-14T08:54:06;10.73;;;4.03;;
12145;SDS011;6136;47.032;15.398;2024-02-14T08:56:34;6.37;;;4.13;;
12145;SDS011;6136;47.032;15.398;2024-02-14T08:59:04;9.50;;;4.03;;
12145;SDS011;6136;47.032;15.398;2024-02-14T09:01:33;7.73;;;4.30;;
12145;SDS011;6136;47.032;15.398;2024-02-14T09:04:02;14.47;;;4.17;;
12145;SDS011;6136;47.032;15.398;2024-02-14T09:06:31;8.03;;;4.33;;
12145;SDS011;6136;47.032;15.398;2024-02-14T09:08:59;6.13;;;4.23;;
12145;SDS011;6136;47.032;15.398;2024-02-14T09:11:27;10.07;;;4.53;;
12145;SDS011;6136;47.032;15.398;2024-02-14T09:13:56;10.27;;;4.63;;
12145;SDS011;6136;47.032;15.398;2024-02-14T09:16:30;6.07;;;4.23;;
12145;SDS011;6136;47.032;15.398;2024-02-14T09:18:58;11.70;;;4.73;;
12145;SDS011;6136;47.032;15.398;2024-02-14T09:21:26;9.13;;;4.60;;
12145;SDS011;6136;47.032;15.398;2024-02-14T09:23:55;10.00;;;4.57;;
12145;SDS011;6136;47.032;15.398;2024-02-14T09:26:24;11.35;;;4.97;;
12145;SDS011;6136;47.032;15.398;2024-02-14T09:28:53;9.65;;;4.25;;
12145;SDS011;6136;47.032;15.398;2024-02-14T09:31:21;11.57;;;5.10;;
12145;SDS011;6136;47.032;15.398;2024-02-14T09:33:50;9.63;;;4.43;;
12145;SDS011;6136;47.032;15.398;2024-02-14T09:36:23;6.70;;;4.28;;
12145;SDS011;6136;47.032;15.398;2024-02-14T09:38:52;7.00;;;3.90;;
12145;SDS011;6136;47.032;15.398;2024-02-14T09:41:22;6.18;;;3.25;;
12145;SDS011;6136;47.032;15.398;2024-02-14T09:43:51;5.93;;;3.17;;
12145;SDS011;6136;47.032;15.398;2024-02-14T09:46:19;6.45;;;3.67;;
12145;SDS011;6136;47.032;15.398;2024-02-14T09:48:47;9.57;;;3.75;;
12145;SDS011;6136;47.032;15.398;2024-02-14T09:51:17;7.22;;;3.85;;
12145;SDS011;6136;47.032;15.398;2024-02-14T09:53:45;7.70;;;3.83;;
12145;SDS011;6136;47.032;15.398;2024-02-14T09:56:13;6.82;;;3.83;;
12145;SDS011;6136;47.032;15.398;2024-02-14T09:58:43;8.23;;;3.72;;
12145;SDS011;6136;47.032;15.398;2024-02-14T10:01:11;6.65;;;3.38;;
12145;SDS011;6136;47.032;15.398;2024-02-14T10:03:39;9.63;;;3.88;;
12145;SDS011;6136;47.032;15.398;2024-02-14T10:06:07;4.85;;;3.30;;
12145;SDS011;6136;47.032;15.398;2024-02-14T10:08:37;6.47;;;2.72;;
12145;SDS011;6136;47.032;15.398;2024-02-14T10:11:18;6.90;;;3.03;;
12145;SDS011;6136;47.032;15.398;2024-02-14T10:13:48;7.72;;;2.75;;
12145;SDS011;6136;47.032;15.398;2024-02-14T10:16:16;4.93;;;2.72;;
12145;SDS011;6136;47.032;15.398;2024-02-14T10:18:47;8.23;;;2.97;;
12145;SDS011;6136;47.032;15.398;2024-02-14T10:21:17;10.50;;;2.92;;
12145;SDS011;6136;47.032;15.398;2024-02-14T10:23:47;11.70;;;5.10;;
12145;SDS011;6136;47.032;15.398;2024-02-14T10:26:17;9.32;;;3.42;;
12145;SDS011;6136;47.032;15.398;2024-02-14T10:28:45;7.25;;;3.08;;
12145;SDS011;6136;47.032;15.398;2024-02-14T10:31:16;5.40;;;2.75;;
12145;SDS011;6136;47.032;15.398;2024-02-14T10:33:44;4.47;;;2.63;;
12145;SDS011;6136;47.032;15.398;2024-02-14T10:36:12;9.25;;;3.10;;
12145;SDS011;6136;47.032;15.398;2024-02-14T10:38:40;4.47;;;2.83;;
12145;SDS011;6136;47.032;15.398;2024-02-14T10:41:10;5.28;;;2.70;;
12145;SDS011;6136;47.032;15.398;2024-02-14T10:43:40;4.75;;;2.75;;
12145;SDS011;6136;47.032;15.398;2024-02-14T10:46:10;7.28;;;2.88;;
12145;SDS011;6136;47.032;15.398;2024-02-14T10:48:40;6.57;;;2.85;;
12145;SDS011;6136;47.032;15.398;2024-02-14T10:51:09;5.85;;;2.78;;
12145;SDS011;6136;47.032;15.398;2024-02-14T10:53:42;13.48;;;3.08;;
12145;SDS011;6136;47.032;15.398;2024-02-14T10:56:15;5.88;;;2.50;;
12145;SDS011;6136;47.032;15.398;2024-02-14T10:58:44;4.80;;;2.75;;
12145;SDS011;6136;47.032;15.398;2024-02-14T11:01:13;3.13;;;2.47;;
12145;SDS011;6136;47.032;15.398;2024-02-14T11:03:43;8.23;;;3.25;;
12145;SDS011;6136;47.032;15.398;2024-02-14T11:06:15;7.15;;;3.10;;
12145;SDS011;6136;47.032;15.398;2024-02-14T11:08:54;6.95;;;2.95;;
12145;SDS011;6136;47.032;15.398;2024-02-14T11:11:24;8.35;;;3.75;;
12145;SDS011;6136;47.032;15.398;2024-02-14T11:13:52;7.53;;;3.13;;
12145;SDS011;6136;47.032;15.398;2024-02-14T11:16:25;5.13;;;2.47;;
12145;SDS011;6136;47.032;15.398;2024-02-14T11:19:05;5.82;;;3.30;;
12145;SDS011;6136;47.032;15.398;2024-02-14T11:21:35;4.95;;;2.95;;
12145;SDS011;6136;47.032;15.398;2024-02-14T11:24:06;5.30;;;2.75;;
12145;SDS011;6136;47.032;15.398;2024-02-14T11:26:40;5.32;;;2.55;;
12145;SDS011;6136;47.032;15.398;2024-02-14T11:29:13;5.45;;;2.67;;
12145;SDS011;6136;47.032;15.398;2024-02-14T11:31:45;5.97;;;3.25;;
12145;SDS011;6136;47.032;15.398;2024-02-14T11:34:14;5.18;;;3.05;;
12145;SDS011;6136;47.032;15.398;2024-02-14T11:36:43;9.35;;;2.47;;
12145;SDS011;6136;47.032;15.398;2024-02-14T11:39:11;5.40;;;2.80;;
12145;SDS011;6136;47.032;15.398;2024-02-14T11:41:42;5.00;;;2.78;;
12145;SDS011;6136;47.032;15.398;2024-02-14T11:44:10;9.25;;;2.60;;
12145;SDS011;6136;47.032;15.398;2024-02-14T11:46:38;3.30;;;2.65;;
12145;SDS011;6136;47.032;15.398;2024-02-14T11:49:08;11.25;;;2.28;;
12145;SDS011;6136;47.032;15.398;2024-02-14T11:51:37;7.43;;;2.35;;
12145;SDS011;6136;47.032;15.398;2024-02-14T11:54:05;7.80;;;2.45;;
12145;SDS011;6136;47.032;15.398;2024-02-14T11:56:35;6.47;;;2.28;;
12145;SDS011;6136;47.032;15.398;2024-02-14T11:59:05;3.58;;;1.77;;
12145;SDS011;6136;47.032;15.398;2024-02-14T12:01:34;3.83;;;1.60;;
12145;SDS011;6136;47.032;15.398;2024-02-14T12:04:02;1.50;;;1.30;;
12145;SDS011;6136;47.032;15.398;2024-02-14T12:06:33;2.95;;;1.70;;
12145;SDS011;6136;47.032;15.398;2024-02-14T12:09:02;4.78;;;1.40;;
12145;SDS011;6136;47.032;15.398;2024-02-14T12:11:32;2.53;;;1.40;;
12145;SDS011;6136;47.032;15.398;2024-02-14T12:14:01;1.42;;;1.25;;
12145;SDS011;6136;47.032;15.398;2024-02-14T12:16:31;5.13;;;1.70;;
12145;SDS011;6136;47.032;15.398;2024-02-14T12:19:05;1.33;;;1.17;;
12145;SDS011;6136;47.032;15.398;2024-02-14T12:21:35;5.88;;;1.60;;
12145;SDS011;6136;47.032;15.398;2024-02-14T12:24:04;2.65;;;1.27;;
12145;SDS011;6136;47.032;15.398;2024-02-14T12:26:32;2.30;;;1.55;;
12145;SDS011;6136;47.032;15.398;2024-02-14T12:29:01;1.45;;;1.10;;
12145;SDS011;6136;47.032;15.398;2024-02-14T12:31:31;2.50;;;1.30;;
12145;SDS011;6136;47.032;15.398;2024-02-14T12:34:00;2.03;;;1.27;;
12145;SDS011;6136;47.032;15.398;2024-02-14T12:36:29;2.47;;;1.40;;
12145;SDS011;6136;47.032;15.398;2024-02-14T12:38:57;1.42;;;1.30;;
12145;SDS011;6136;47.032;15.398;2024-02-14T12:41:25;2.65;;;1.52;;
12145;SDS011;6136;47.032;15.398;2024-02-14T12:43:53;1.50;;;1.38;;
12145;SDS011;6136;47.032;15.398;2024-02-14T12:46:21;1.30;;;1.20;;
12145;SDS011;6136;47.032;15.398;2024-02-14T12:48:51;1.20;;;1.10;;
12145;SDS011;6136;47.032;15.398;2024-02-14T12:51:19;2.85;;;1.83;;
12145;SDS011;6136;47.032;15.398;2024-02-14T12:53:47;2.58;;;1.52;;
12145;SDS011;6136;47.032;15.398;2024-02-14T12:56:15;3.35;;;1.60;;
12145;SDS011;6136;47.032;15.398;2024-02-14T12:58:42;5.30;;;1.52;;
12145;SDS011;6136;47.032;15.398;2024-02-14T13:01:11;3.40;;;1.30;;
12145;SDS011;6136;47.032;15.398;2024-02-14T13:03:40;5.85;;;3.33;;
12145;SDS011;6136;47.032;15.398;2024-02-14T13:06:09;1.55;;;1.45;;
12145;SDS011;6136;47.032;15.398;2024-02-14T13:08:37;2.95;;;1.90;;
12145;SDS011;6136;47.032;15.398;2024-02-14T13:11:06;1.70;;;1.60;;
12145;SDS011;6136;47.032;15.398;2024-02-14T13:13:35;2.30;;;1.55;;
12145;SDS011;6136;47.032;15.398;2024-02-14T13:16:04;1.25;;;1.15;;
12145;SDS011;6136;47.032;15.398;2024-02-14T13:18:33;2.17;;;1.27;;
12145;SDS011;6136;47.032;15.398;2024-02-14T13:21:02;1.73;;;1.55;;
12145;SDS011;6136;47.032;15.398;2024-02-14T13:23:32;2.95;;;1.50;;
12145;SDS011;6136;47.032;15.398;2024-02-14T13:26:00;3.40;;;1.33;;
12145;SDS011;6136;47.032;15.398;2024-02-14T13:28:28;2.88;;;1.40;;
12145;SDS011;6136;47.032;15.398;2024-02-14T13:30:56;1.48;;;1.27;;
12145;SDS011;6136;47.032;15.398;2024-02-14T13:33:25;1.77;;;1.35;;
12145;SDS011;6136;47.032;15.398;2024-02-14T13:35:53;2.30;;;1.40;;
12145;SDS011;6136;47.032;15.398;2024-02-14T13:38:21;4.63;;;1.77;;
12145;SDS011;6136;47.032;15.398;2024-02-14T13:40:50;3.28;;;1.70;;
12145;SDS011;6136;47.032;15.398;2024-02-14T13:43:18;1.95;;;1.40;;
12145;SDS011;6136;47.032;15.398;2024-02-14T13:45:46;2.08;;;1.70;;
12145;SDS011;6136;47.032;15.398;2024-02-14T13:48:17;1.50;;;1.23;;
12145;SDS011;6136;47.032;15.398;2024-02-14T13:50:45;1.80;;;1.67;;
12145;SDS011;6136;47.032;15.398;2024-02-14T13:53:13;1.92;;;1.63;;
12145;SDS011;6136;47.032;15.398;2024-02-14T13:55:43;2.83;;;1.50;;
12145;SDS011;6136;47.032;15.398;2024-02-14T13:58:12;3.03;;;1.65;;
12145;SDS011;6136;47.032;15.398;2024-02-14T14:00:44;1.83;;;1.52;;
12145;SDS011;6136;47.032;15.398;2024-02-14T14:03:12;2.05;;;1.27;;
12145;SDS011;6136;47.032;15.398;2024-02-14T14:05:40;1.60;;;1.40;;
12145;SDS011;6136;47.032;15.398;2024-02-14T14:08:08;2.75;;;1.63;;
12145;SDS011;6136;47.032;15.398;2024-02-14T14:10:36;1.85;;;1.15;;
12145;SDS011;6136;47.032;15.398;2024-02-14T14:13:04;1.45;;;1.27;;
12145;SDS011;6136;47.032;15.398;2024-02-14T14:15:33;2.25;;;1.77;;
12145;SDS011;6136;47.032;15.398;2024-02-14T14:18:01;1.40;;;1.30;;
12145;SDS011;6136;47.032;15.398;2024-02-14T14:20:29;2.33;;;1.30;;
12145;SDS011;6136;47.032;15.398;2024-02-14T14:22:58;1.85;;;1.60;;
12145;SDS011;6136;47.032;15.398;2024-02-14T14:25:26;3.17;;;1.30;;
12145;SDS011;6136;47.032;15.398;2024-02-14T14:27:57;1.58;;;1.45;;
12145;SDS011;6136;47.032;15.398;2024-02-14T14:30:25;2.42;;;1.60;;
12145;SDS011;6136;47.032;15.398;2024-02-14T14:32:54;1.55;;;1.30;;
12145;SDS011;6136;47.032;15.398;2024-02-14T14:35:22;2.20;;;1.50;;
12145;SDS011;6136;47.032;15.398;2024-02-14T14:37:51;3.47;;;1.15;;
12145;SDS011;6136;47.032;15.398;2024-02-14T14:40:21;1.40;;;1.30;;
12145;SDS011;6136;47.032;15.398;2024-02-14T14:42:49;1.25;;;1.10;;
12145;SDS011;6136;47.032;15.398;2024-02-14T14:45:17;1.20;;;1.10;;
12145;SDS011;6136;47.032;15.398;2024-02-14T14:47:45;1.33;;;1.20;;
12145;SDS011;6136;47.032;15.398;2024-02-14T14:50:15;1.70;;;1.05;;
12145;SDS011;6136;47.032;15.398;2024-02-14T14:52:44;1.27;;;1.17;;
12145;SDS011;6136;47.032;15.398;2024-02-14T14:55:13;2.67;;;1.25;;